sensor_id;sensor_type;location;lat;lon;timestamp;P1;durP1;ratioP1;P2;durP2;ratioP2
25045;SDS011;13044;49.304;12.840;2022-12-20T00:01:24;107.60;;;42.35;;
25045;SDS011;13044;49.304;12.840;2022-12-20T00:03:54;104.47;;;40.75;;
25045;SDS011;13044;49.304;12.840;2022-12-20T00:06:23;90.85;;;37.50;;
25045;SDS011;13044;49.304;12.840;2022-12-20T00:08:54;50.88;;;21.27;;
25045;SDS011;13044;49.304;12.840;2022-12-20T00:11:26;78.35;;;33.28;;
25045;SDS011;13044;49.304;12.840;2022-12-20T00:13:55;102.03;;;42.70;;
25045;SDS011;13044;49.304;12.840;2022-12-20T00:16:23;84.78;;;34.85;;
25045;SDS011;13044;49.304;12.840;2022-12-20T00:18:54;92.55;;;41.40;;
25045;SDS011;13044;49.304;12.840;2022-12-20T00:21:25;98.05;;;40.35;;
25045;SDS011;13044;49.304;12.840;2022-12-20T00:23:54;55.95;;;22.88;;
25045;SDS011;13044;49.304;12.840;2022-12-20T00:26:23;71.45;;;29.63;;
25045;SDS011;13044;49.304;12.840;2022-12-20T00:28:53;76.55;;;32.58;;
25045;SDS011;13044;49.304;12.840;2022-12-20T00:31:21;108.80;;;44.47;;
25045;SDS011;13044;49.304;12.840;2022-12-20T00:33:51;101.13;;;42.53;;
25045;SDS011;13044;49.304;12.840;2022-12-20T00:36:19;101.20;;;41.60;;
25045;SDS011;13044;49.304;12.840;2022-12-20T00:38:49;68.32;;;28.40;;
25045;SDS011;13044;49.304;12.840;2022-12-20T00:41:22;60.35;;;24.95;;
25045;SDS011;13044;49.304;12.840;2022-12-20T00:43:53;36.42;;;16.45;;
25045;SDS011;13044;49.304;12.840;2022-12-20T00:46:20;60.95;;;24.77;;
25045;SDS011;13044;49.304;12.840;2022-12-20T00:48:48;92.47;;;38.38;;
25045;SDS011;13044;49.304;12.840;2022-12-20T00:51:17;97.13;;;40.33;;
25045;SDS011;13044;49.304;12.840;2022-12-20T00:53:47;97.70;;;40.78;;
25045;SDS011;13044;49.304;12.840;2022-12-20T00:56:14;68.03;;;27.95;;
25045;SDS011;13044;49.304;12.840;2022-12-20T00:58:42;57.90;;;25.08;;
25045;SDS011;13044;49.304;12.840;2022-12-20T01:01:23;57.72;;;23.02;;
25045;SDS011;13044;49.304;12.840;2022-12-20T01:03:57;103.25;;;41.15;;
25045;SDS011;13044;49.304;12.840;2022-12-20T01:06:24;74.10;;;31.13;;
25045;SDS011;13044;49.304;12.840;2022-12-20T01:08:53;69.25;;;29.77;;
25045;SDS011;13044;49.304;12.840;2022-12-20T01:11:22;94.22;;;40.42;;
25045;SDS011;13044;49.304;12.840;2022-12-20T01:13:53;102.55;;;42.78;;
25045;SDS011;13044;49.304;12.840;2022-12-20T01:16:27;107.80;;;42.85;;
25045;SDS011;13044;49.304;12.840;2022-12-20T01:19:07;53.72;;;23.63;;
25045;SDS011;13044;49.304;12.840;2022-12-20T01:21:37;81.88;;;34.00;;
25045;SDS011;13044;49.304;12.840;2022-12-20T01:24:10;66.88;;;30.95;;
25045;SDS011;13044;49.304;12.840;2022-12-20T01:26:43;57.70;;;24.60;;
25045;SDS011;13044;49.304;12.840;2022-12-20T01:29:10;86.18;;;36.72;;
25045;SDS011;13044;49.304;12.840;2022-12-20T01:31:39;55.80;;;24.27;;
25045;SDS011;13044;49.304;12.840;2022-12-20T01:34:06;95.80;;;40.13;;
25045;SDS011;13044;49.304;12.840;2022-12-20T01:36:34;88.80;;;38.65;;
25045;SDS011;13044;49.304;12.840;2022-12-20T01:39:05;70.30;;;29.85;;
25045;SDS011;13044;49.304;12.840;2022-12-20T01:41:36;49.88;;;22.42;;
25045;SDS011;13044;49.304;12.840;2022-12-20T01:44:05;84.78;;;34.05;;
25045;SDS011;13044;49.304;12.840;2022-12-20T01:46:51;37.50;;;16.40;;
25045;SDS011;13044;49.304;12.840;2022-12-20T01:51:52;71.40;;;29.17;;
25045;SDS011;13044;49.304;12.840;2022-12-20T01:54:52;68.63;;;30.52;;
25045;SDS011;13044;49.304;12.840;2022-12-20T01:57:41;55.38;;;23.85;;
25045;SDS011;13044;49.304;12.840;2022-12-20T02:00:17;81.18;;;33.78;;
25045;SDS011;13044;49.304;12.840;2022-12-20T02:02:45;51.15;;;22.15;;
25045;SDS011;13044;49.304;12.840;2022-12-20T02:05:15;79.63;;;32.00;;
25045;SDS011;13044;49.304;12.840;2022-12-20T02:07:44;55.67;;;23.83;;
25045;SDS011;13044;49.304;12.840;2022-12-20T02:10:16;96.53;;;39.85;;
25045;SDS011;13044;49.304;12.840;2022-12-20T02:12:45;65.63;;;25.48;;
25045;SDS011;13044;49.304;12.840;2022-12-20T02:18:15;82.72;;;33.50;;
25045;SDS011;13044;49.304;12.840;2022-12-20T02:21:16;67.68;;;29.60;;
25045;SDS011;13044;49.304;12.840;2022-12-20T02:23:59;71.60;;;29.45;;
25045;SDS011;13044;49.304;12.840;2022-12-20T02:26:57;83.90;;;34.65;;
25045;SDS011;13044;49.304;12.840;2022-12-20T02:30:03;74.18;;;29.95;;
25045;SDS011;13044;49.304;12.840;2022-12-20T02:35:08;68.45;;;29.80;;
25045;SDS011;13044;49.304;12.840;2022-12-20T02:37:46;83.82;;;34.20;;
25045;SDS011;13044;49.304;12.840;2022-12-20T02:40:21;52.72;;;23.73;;
25045;SDS011;13044;49.304;12.840;2022-12-20T02:43:07;84.13;;;35.67;;
25045;SDS011;13044;49.304;12.840;2022-12-20T02:45:55;82.40;;;34.38;;
25045;SDS011;13044;49.304;12.840;2022-12-20T02:48:24;90.35;;;36.00;;
25045;SDS011;13044;49.304;12.840;2022-12-20T02:50:55;86.47;;;36.78;;
25045;SDS011;13044;49.304;12.840;2022-12-20T02:53:24;85.65;;;36.88;;
25045;SDS011;13044;49.304;12.840;2022-12-20T02:55:53;76.30;;;33.50;;
25045;SDS011;13044;49.304;12.840;2022-12-20T02:58:33;74.15;;;31.90;;
25045;SDS011;13044;49.304;12.840;2022-12-20T03:01:21;66.40;;;30.77;;
25045;SDS011;13044;49.304;12.840;2022-12-20T03:03:59;70.88;;;29.95;;
25045;SDS011;13044;49.304;12.840;2022-12-20T03:06:27;61.08;;;26.35;;
25045;SDS011;13044;49.304;12.840;2022-12-20T03:08:55;69.63;;;30.73;;
25045;SDS011;13044;49.304;12.840;2022-12-20T03:11:22;67.82;;;27.95;;
25045;SDS011;13044;49.304;12.840;2022-12-20T03:13:49;68.00;;;30.85;;
25045;SDS011;13044;49.304;12.840;2022-12-20T03:16:16;65.85;;;28.52;;
25045;SDS011;13044;49.304;12.840;2022-12-20T03:18:43;60.00;;;26.77;;
25045;SDS011;13044;49.304;12.840;2022-12-20T03:21:11;59.13;;;27.38;;
25045;SDS011;13044;49.304;12.840;2022-12-20T03:23:38;56.63;;;27.40;;
25045;SDS011;13044;49.304;12.840;2022-12-20T03:26:05;61.38;;;25.92;;
25045;SDS011;13044;49.304;12.840;2022-12-20T03:28:31;58.47;;;26.67;;
25045;SDS011;13044;49.304;12.840;2022-12-20T03:30:58;61.67;;;26.35;;
25045;SDS011;13044;49.304;12.840;2022-12-20T03:33:25;55.83;;;26.70;;
25045;SDS011;13044;49.304;12.840;2022-12-20T03:35:52;55.67;;;25.23;;
25045;SDS011;13044;49.304;12.840;2022-12-20T03:38:19;48.28;;;22.67;;
25045;SDS011;13044;49.304;12.840;2022-12-20T03:40:45;48.25;;;24.33;;
25045;SDS011;13044;49.304;12.840;2022-12-20T03:43:12;51.97;;;24.65;;
25045;SDS011;13044;49.304;12.840;2022-12-20T03:45:39;55.60;;;25.38;;
25045;SDS011;13044;49.304;12.840;2022-12-20T03:48:06;57.58;;;26.58;;
25045;SDS011;13044;49.304;12.840;2022-12-20T03:50:32;54.40;;;26.23;;
25045;SDS011;13044;49.304;12.840;2022-12-20T03:53:01;57.47;;;25.08;;
25045;SDS011;13044;49.304;12.840;2022-12-20T03:55:28;54.45;;;24.98;;
25045;SDS011;13044;49.304;12.840;2022-12-20T03:57:55;51.20;;;24.48;;
25045;SDS011;13044;49.304;12.840;2022-12-20T04:00:22;42.78;;;19.98;;
25045;SDS011;13044;49.304;12.840;2022-12-20T04:02:49;52.20;;;23.38;;
25045;SDS011;13044;49.304;12.840;2022-12-20T04:05:16;55.58;;;24.65;;
25045;SDS011;13044;49.304;12.840;2022-12-20T04:07:43;52.97;;;24.33;;
25045;SDS011;13044;49.304;12.840;2022-12-20T04:10:10;53.72;;;25.95;;
25045;SDS011;13044;49.304;12.840;2022-12-20T04:12:37;54.03;;;23.95;;
25045;SDS011;13044;49.304;12.840;2022-12-20T04:15:04;53.83;;;24.35;;
25045;SDS011;13044;49.304;12.840;2022-12-20T04:17:33;53.50;;;25.20;;
25045;SDS011;13044;49.304;12.840;2022-12-20T04:19:59;51.22;;;25.08;;
25045;SDS011;13044;49.304;12.840;2022-12-20T04:22:45;51.47;;;24.70;;
25045;SDS011;13044;49.304;12.840;2022-12-20T04:25:17;50.57;;;24.70;;
25045;SDS011;13044;49.304;12.840;2022-12-20T04:27:46;46.65;;;23.05;;
25045;SDS011;13044;49.304;12.840;2022-12-20T04:30:12;87.82;;;37.25;;
25045;SDS011;13044;49.304;12.840;2022-12-20T04:32:40;64.15;;;30.00;;
25045;SDS011;13044;49.304;12.840;2022-12-20T04:35:07;48.47;;;23.95;;
25045;SDS011;13044;49.304;12.840;2022-12-20T04:37:34;43.20;;;22.00;;
25045;SDS011;13044;49.304;12.840;2022-12-20T04:40:01;46.35;;;21.65;;
25045;SDS011;13044;49.304;12.840;2022-12-20T04:42:28;41.83;;;20.67;;
25045;SDS011;13044;49.304;12.840;2022-12-20T04:44:54;32.00;;;15.75;;
25045;SDS011;13044;49.304;12.840;2022-12-20T04:47:21;26.27;;;13.60;;
25045;SDS011;13044;49.304;12.840;2022-12-20T04:49:48;24.00;;;11.85;;
25045;SDS011;13044;49.304;12.840;2022-12-20T04:52:15;38.38;;;18.05;;
25045;SDS011;13044;49.304;12.840;2022-12-20T04:55:00;31.27;;;14.95;;
25045;SDS011;13044;49.304;12.840;2022-12-20T04:57:27;25.15;;;12.50;;
25045;SDS011;13044;49.304;12.840;2022-12-20T04:59:54;39.05;;;18.65;;
25045;SDS011;13044;49.304;12.840;2022-12-20T05:02:21;42.42;;;21.70;;
25045;SDS011;13044;49.304;12.840;2022-12-20T05:04:47;30.77;;;15.20;;
25045;SDS011;13044;49.304;12.840;2022-12-20T05:07:14;29.33;;;15.23;;
25045;SDS011;13044;49.304;12.840;2022-12-20T05:09:41;38.40;;;19.98;;
25045;SDS011;13044;49.304;12.840;2022-12-20T05:12:08;47.47;;;23.33;;
25045;SDS011;13044;49.304;12.840;2022-12-20T05:14:35;73.25;;;31.55;;
25045;SDS011;13044;49.304;12.840;2022-12-20T05:17:01;50.03;;;23.55;;
25045;SDS011;13044;49.304;12.840;2022-12-20T05:19:28;43.08;;;21.17;;
25045;SDS011;13044;49.304;12.840;2022-12-20T05:21:55;77.70;;;33.88;;
25045;SDS011;13044;49.304;12.840;2022-12-20T05:24:40;48.05;;;22.75;;
25045;SDS011;13044;49.304;12.840;2022-12-20T05:27:26;34.97;;;16.08;;
25045;SDS011;13044;49.304;12.840;2022-12-20T05:29:53;65.70;;;29.98;;
25045;SDS011;13044;49.304;12.840;2022-12-20T05:32:19;83.63;;;34.65;;
25045;SDS011;13044;49.304;12.840;2022-12-20T05:34:46;65.03;;;29.60;;
25045;SDS011;13044;49.304;12.840;2022-12-20T05:37:13;44.85;;;20.23;;
25045;SDS011;13044;49.304;12.840;2022-12-20T05:39:40;86.85;;;36.28;;
25045;SDS011;13044;49.304;12.840;2022-12-20T05:42:08;46.33;;;20.60;;
25045;SDS011;13044;49.304;12.840;2022-12-20T05:44:35;77.97;;;32.95;;
25045;SDS011;13044;49.304;12.840;2022-12-20T05:47:02;52.08;;;24.08;;
25045;SDS011;13044;49.304;12.840;2022-12-20T05:49:29;53.35;;;23.80;;
25045;SDS011;13044;49.304;12.840;2022-12-20T05:51:55;51.53;;;25.27;;
25045;SDS011;13044;49.304;12.840;2022-12-20T05:54:22;52.42;;;25.00;;
25045;SDS011;13044;49.304;12.840;2022-12-20T05:56:50;32.92;;;17.77;;
25045;SDS011;13044;49.304;12.840;2022-12-20T05:59:17;40.72;;;19.30;;
25045;SDS011;13044;49.304;12.840;2022-12-20T06:01:44;58.85;;;25.05;;
25045;SDS011;13044;49.304;12.840;2022-12-20T06:04:11;44.35;;;20.13;;
25045;SDS011;13044;49.304;12.840;2022-12-20T06:06:37;57.75;;;23.65;;
25045;SDS011;13044;49.304;12.840;2022-12-20T06:09:04;34.08;;;15.40;;
25045;SDS011;13044;49.304;12.840;2022-12-20T06:11:31;32.42;;;15.30;;
25045;SDS011;13044;49.304;12.840;2022-12-20T06:13:58;67.65;;;29.13;;
25045;SDS011;13044;49.304;12.840;2022-12-20T06:16:25;59.25;;;27.58;;
25045;SDS011;13044;49.304;12.840;2022-12-20T06:18:52;49.60;;;23.00;;
25045;SDS011;13044;49.304;12.840;2022-12-20T06:21:19;54.55;;;24.35;;
25045;SDS011;13044;49.304;12.840;2022-12-20T06:23:46;55.58;;;28.20;;
25045;SDS011;13044;49.304;12.840;2022-12-20T06:26:13;55.72;;;25.83;;
25045;SDS011;13044;49.304;12.840;2022-12-20T06:28:40;46.85;;;23.48;;
25045;SDS011;13044;49.304;12.840;2022-12-20T06:31:11;40.20;;;19.83;;
25045;SDS011;13044;49.304;12.840;2022-12-20T06:33:38;62.78;;;30.83;;
25045;SDS011;13044;49.304;12.840;2022-12-20T06:36:05;62.90;;;27.38;;
25045;SDS011;13044;49.304;12.840;2022-12-20T06:38:32;48.30;;;21.40;;
25045;SDS011;13044;49.304;12.840;2022-12-20T06:40:58;65.88;;;29.20;;
25045;SDS011;13044;49.304;12.840;2022-12-20T06:43:25;40.53;;;18.55;;
25045;SDS011;13044;49.304;12.840;2022-12-20T06:45:52;41.38;;;19.00;;
25045;SDS011;13044;49.304;12.840;2022-12-20T06:48:19;53.15;;;23.92;;
25045;SDS011;13044;49.304;12.840;2022-12-20T06:50:47;37.13;;;17.38;;
25045;SDS011;13044;49.304;12.840;2022-12-20T06:53:21;41.40;;;19.65;;
25045;SDS011;13044;49.304;12.840;2022-12-20T06:55:48;55.45;;;23.95;;
25045;SDS011;13044;49.304;12.840;2022-12-20T06:58:16;32.47;;;15.27;;
25045;SDS011;13044;49.304;12.840;2022-12-20T07:00:44;51.50;;;25.33;;
25045;SDS011;13044;49.304;12.840;2022-12-20T07:03:11;40.25;;;18.80;;
25045;SDS011;13044;49.304;12.840;2022-12-20T07:05:39;65.93;;;30.80;;
25045;SDS011;13044;49.304;12.840;2022-12-20T07:08:06;77.65;;;32.05;;
25045;SDS011;13044;49.304;12.840;2022-12-20T07:10:34;67.75;;;29.70;;
25045;SDS011;13044;49.304;12.840;2022-12-20T07:13:02;51.85;;;25.17;;
25045;SDS011;13044;49.304;12.840;2022-12-20T07:15:29;67.30;;;29.98;;
25045;SDS011;13044;49.304;12.840;2022-12-20T07:17:57;73.97;;;32.13;;
25045;SDS011;13044;49.304;12.840;2022-12-20T07:20:24;77.10;;;33.35;;
25045;SDS011;13044;49.304;12.840;2022-12-20T07:22:51;85.50;;;36.72;;
25045;SDS011;13044;49.304;12.840;2022-12-20T07:25:18;72.03;;;30.83;;
25045;SDS011;13044;49.304;12.840;2022-12-20T07:27:46;41.28;;;18.48;;
25045;SDS011;13044;49.304;12.840;2022-12-20T07:30:15;48.00;;;21.33;;
25045;SDS011;13044;49.304;12.840;2022-12-20T07:32:43;63.20;;;27.45;;
25045;SDS011;13044;49.304;12.840;2022-12-20T07:35:10;62.70;;;27.48;;
25045;SDS011;13044;49.304;12.840;2022-12-20T07:37:38;60.85;;;25.17;;
25045;SDS011;13044;49.304;12.840;2022-12-20T07:40:06;45.67;;;20.75;;
25045;SDS011;13044;49.304;12.840;2022-12-20T07:42:36;56.20;;;24.60;;
25045;SDS011;13044;49.304;12.840;2022-12-20T07:45:13;45.20;;;21.42;;
25045;SDS011;13044;49.304;12.840;2022-12-20T07:47:40;48.55;;;22.38;;
25045;SDS011;13044;49.304;12.840;2022-12-20T07:50:07;63.85;;;29.33;;
25045;SDS011;13044;49.304;12.840;2022-12-20T07:52:34;44.90;;;20.27;;
25045;SDS011;13044;49.304;12.840;2022-12-20T07:55:03;61.58;;;28.02;;
25045;SDS011;13044;49.304;12.840;2022-12-20T07:57:41;54.60;;;25.52;;
25045;SDS011;13044;49.304;12.840;2022-12-20T08:00:20;54.83;;;26.58;;
25045;SDS011;13044;49.304;12.840;2022-12-20T08:02:58;47.55;;;22.30;;
25045;SDS011;13044;49.304;12.840;2022-12-20T08:05:41;46.58;;;22.20;;
25045;SDS011;13044;49.304;12.840;2022-12-20T08:08:11;35.33;;;17.50;;
25045;SDS011;13044;49.304;12.840;2022-12-20T08:10:38;43.92;;;21.40;;
25045;SDS011;13044;49.304;12.840;2022-12-20T08:13:06;65.05;;;30.90;;
25045;SDS011;13044;49.304;12.840;2022-12-20T08:15:34;45.83;;;20.63;;
25045;SDS011;13044;49.304;12.840;2022-12-20T08:18:01;42.75;;;21.17;;
25045;SDS011;13044;49.304;12.840;2022-12-20T08:20:31;50.55;;;25.35;;
25045;SDS011;13044;49.304;12.840;2022-12-20T08:22:58;53.78;;;25.67;;
25045;SDS011;13044;49.304;12.840;2022-12-20T08:25:28;50.95;;;25.75;;
25045;SDS011;13044;49.304;12.840;2022-12-20T08:27:58;40.22;;;18.88;;
25045;SDS011;13044;49.304;12.840;2022-12-20T08:30:27;58.65;;;27.83;;
25045;SDS011;13044;49.304;12.840;2022-12-20T08:32:54;49.17;;;24.63;;
25045;SDS011;13044;49.304;12.840;2022-12-20T08:35:21;48.67;;;23.30;;
25045;SDS011;13044;49.304;12.840;2022-12-20T08:37:52;57.50;;;27.83;;
25045;SDS011;13044;49.304;12.840;2022-12-20T08:40:19;42.83;;;21.15;;
25045;SDS011;13044;49.304;12.840;2022-12-20T08:42:46;45.38;;;20.80;;
25045;SDS011;13044;49.304;12.840;2022-12-20T08:45:13;50.90;;;22.98;;
25045;SDS011;13044;49.304;12.840;2022-12-20T08:47:40;30.13;;;14.52;;
25045;SDS011;13044;49.304;12.840;2022-12-20T08:50:07;61.33;;;28.65;;
25045;SDS011;13044;49.304;12.840;2022-12-20T08:52:34;45.97;;;22.15;;
25045;SDS011;13044;49.304;12.840;2022-12-20T08:55:01;50.47;;;25.27;;
25045;SDS011;13044;49.304;12.840;2022-12-20T08:57:30;42.75;;;21.67;;
25045;SDS011;13044;49.304;12.840;2022-12-20T08:59:57;47.58;;;21.63;;
25045;SDS011;13044;49.304;12.840;2022-12-20T09:02:24;56.95;;;26.40;;
25045;SDS011;13044;49.304;12.840;2022-12-20T09:04:51;38.85;;;18.88;;
25045;SDS011;13044;49.304;12.840;2022-12-20T09:07:18;26.77;;;12.32;;
25045;SDS011;13044;49.304;12.840;2022-12-20T09:09:45;58.60;;;27.73;;
25045;SDS011;13044;49.304;12.840;2022-12-20T09:12:12;48.55;;;23.95;;
25045;SDS011;13044;49.304;12.840;2022-12-20T09:14:39;61.08;;;32.45;;
25045;SDS011;13044;49.304;12.840;2022-12-20T09:17:07;44.75;;;21.00;;
25045;SDS011;13044;49.304;12.840;2022-12-20T09:19:33;52.38;;;24.98;;
25045;SDS011;13044;49.304;12.840;2022-12-20T09:22:00;46.55;;;23.58;;
25045;SDS011;13044;49.304;12.840;2022-12-20T09:24:27;44.38;;;21.45;;
25045;SDS011;13044;49.304;12.840;2022-12-20T09:26:54;42.67;;;21.85;;
25045;SDS011;13044;49.304;12.840;2022-12-20T09:29:21;37.15;;;19.23;;
25045;SDS011;13044;49.304;12.840;2022-12-20T09:31:54;23.27;;;12.95;;
25045;SDS011;13044;49.304;12.840;2022-12-20T09:34:21;32.25;;;16.60;;
25045;SDS011;13044;49.304;12.840;2022-12-20T09:36:48;39.35;;;19.48;;
25045;SDS011;13044;49.304;12.840;2022-12-20T09:39:15;43.72;;;21.55;;
25045;SDS011;13044;49.304;12.840;2022-12-20T09:41:42;36.17;;;19.27;;
25045;SDS011;13044;49.304;12.840;2022-12-20T09:46:53;41.03;;;20.92;;
25045;SDS011;13044;49.304;12.840;2022-12-20T09:49:34;41.10;;;22.00;;
25045;SDS011;13044;49.304;12.840;2022-12-20T10:00:50;38.50;;;19.80;;
25045;SDS011;13044;49.304;12.840;2022-12-20T10:03:28;39.45;;;19.67;;
25045;SDS011;13044;49.304;12.840;2022-12-20T10:05:59;36.83;;;19.45;;
25045;SDS011;13044;49.304;12.840;2022-12-20T10:08:58;43.75;;;21.95;;
25045;SDS011;13044;49.304;12.840;2022-12-20T10:16:57;33.35;;;18.63;;
25045;SDS011;13044;49.304;12.840;2022-12-20T10:22:44;37.40;;;19.77;;
25045;SDS011;13044;49.304;12.840;2022-12-20T10:25:21;41.95;;;19.75;;
25045;SDS011;13044;49.304;12.840;2022-12-20T10:27:52;43.53;;;22.37;;
25045;SDS011;13044;49.304;12.840;2022-12-20T10:30:23;33.88;;;19.00;;
25045;SDS011;13044;49.304;12.840;2022-12-20T10:32:52;34.65;;;20.33;;
25045;SDS011;13044;49.304;12.840;2022-12-20T10:35:29;37.92;;;20.88;;
25045;SDS011;13044;49.304;12.840;2022-12-20T10:38:07;32.80;;;18.45;;
25045;SDS011;13044;49.304;12.840;2022-12-20T10:40:40;40.92;;;22.67;;
25045;SDS011;13044;49.304;12.840;2022-12-20T10:43:44;39.97;;;21.63;;
25045;SDS011;13044;49.304;12.840;2022-12-20T10:46:40;37.28;;;20.50;;
25045;SDS011;13044;49.304;12.840;2022-12-20T10:49:30;42.85;;;21.27;;
25045;SDS011;13044;49.304;12.840;2022-12-20T10:54:41;35.15;;;18.10;;
25045;SDS011;13044;49.304;12.840;2022-12-20T10:57:21;29.55;;;14.18;;
25045;SDS011;13044;49.304;12.840;2022-12-20T11:02:27;35.83;;;19.70;;
25045;SDS011;13044;49.304;12.840;2022-12-20T11:07:37;34.20;;;19.13;;
25045;SDS011;13044;49.304;12.840;2022-12-20T11:10:38;50.38;;;26.48;;
25045;SDS011;13044;49.304;12.840;2022-12-20T11:13:05;43.13;;;22.63;;
25045;SDS011;13044;49.304;12.840;2022-12-20T11:15:35;60.30;;;32.53;;
25045;SDS011;13044;49.304;12.840;2022-12-20T11:18:13;39.15;;;22.00;;
25045;SDS011;13044;49.304;12.840;2022-12-20T11:21:22;50.13;;;26.75;;
25045;SDS011;13044;49.304;12.840;2022-12-20T11:24:20;42.92;;;24.33;;
25045;SDS011;13044;49.304;12.840;2022-12-20T11:27:27;46.17;;;23.95;;
25045;SDS011;13044;49.304;12.840;2022-12-20T11:35:56;44.83;;;22.25;;
25045;SDS011;13044;49.304;12.840;2022-12-20T11:38:39;35.92;;;17.02;;
25045;SDS011;13044;49.304;12.840;2022-12-20T11:47:07;41.22;;;20.38;;
25045;SDS011;13044;49.304;12.840;2022-12-20T11:52:34;43.03;;;22.02;;
25045;SDS011;13044;49.304;12.840;2022-12-20T11:55:14;32.47;;;17.70;;
25045;SDS011;13044;49.304;12.840;2022-12-20T12:00:56;38.60;;;20.80;;
25045;SDS011;13044;49.304;12.840;2022-12-20T12:03:56;24.15;;;13.82;;
25045;SDS011;13044;49.304;12.840;2022-12-20T12:09:44;34.58;;;17.58;;
25045;SDS011;13044;49.304;12.840;2022-12-20T12:12:23;48.35;;;23.98;;
25045;SDS011;13044;49.304;12.840;2022-12-20T12:15:50;39.15;;;20.67;;
25045;SDS011;13044;49.304;12.840;2022-12-20T12:18:43;37.10;;;19.30;;
25045;SDS011;13044;49.304;12.840;2022-12-20T12:21:21;41.65;;;21.00;;
25045;SDS011;13044;49.304;12.840;2022-12-20T12:26:28;50.03;;;25.25;;
25045;SDS011;13044;49.304;12.840;2022-12-20T12:31:35;33.75;;;16.67;;
25045;SDS011;13044;49.304;12.840;2022-12-20T12:37:33;48.05;;;22.92;;
25045;SDS011;13044;49.304;12.840;2022-12-20T12:46:12;27.08;;;14.35;;
25045;SDS011;13044;49.304;12.840;2022-12-20T12:48:57;23.08;;;11.73;;
25045;SDS011;13044;49.304;12.840;2022-12-20T12:51:34;26.42;;;14.02;;
25045;SDS011;13044;49.304;12.840;2022-12-20T12:54:21;29.77;;;15.45;;
25045;SDS011;13044;49.304;12.840;2022-12-20T12:57:13;36.25;;;18.92;;
25045;SDS011;13044;49.304;12.840;2022-12-20T12:59:45;32.28;;;16.20;;
25045;SDS011;13044;49.304;12.840;2022-12-20T13:07:51;33.53;;;18.08;;
25045;SDS011;13044;49.304;12.840;2022-12-20T13:20:17;42.65;;;20.85;;
25045;SDS011;13044;49.304;12.840;2022-12-20T13:25:34;47.92;;;24.60;;
25045;SDS011;13044;49.304;12.840;2022-12-20T13:31:33;39.22;;;20.77;;
25045;SDS011;13044;49.304;12.840;2022-12-20T13:33:44;66.18;;;33.63;;
25045;SDS011;13044;49.304;12.840;2022-12-20T13:39:02;89.43;;;43.25;;
25045;SDS011;13044;49.304;12.840;2022-12-20T13:41:51;90.55;;;39.95;;
25045;SDS011;13044;49.304;12.840;2022-12-20T13:44:44;61.35;;;31.15;;
25045;SDS011;13044;49.304;12.840;2022-12-20T13:47:33;90.85;;;43.15;;
25045;SDS011;13044;49.304;12.840;2022-12-20T13:52:53;87.85;;;39.70;;
25045;SDS011;13044;49.304;12.840;2022-12-20T13:55:25;64.72;;;30.55;;
25045;SDS011;13044;49.304;12.840;2022-12-20T13:58:05;84.20;;;37.72;;
25045;SDS011;13044;49.304;12.840;2022-12-20T14:00:43;91.90;;;41.30;;
25045;SDS011;13044;49.304;12.840;2022-12-20T14:03:22;79.57;;;34.47;;
25045;SDS011;13044;49.304;12.840;2022-12-20T14:05:56;79.10;;;37.05;;
25045;SDS011;13044;49.304;12.840;2022-12-20T14:08:29;73.83;;;30.63;;
25045;SDS011;13044;49.304;12.840;2022-12-20T14:11:33;101.70;;;46.67;;
25045;SDS011;13044;49.304;12.840;2022-12-20T14:13:57;87.57;;;40.63;;
25045;SDS011;13044;49.304;12.840;2022-12-20T14:16:30;73.70;;;31.98;;
25045;SDS011;13044;49.304;12.840;2022-12-20T14:19:02;84.00;;;37.42;;
25045;SDS011;13044;49.304;12.840;2022-12-20T14:21:33;68.32;;;28.27;;
25045;SDS011;13044;49.304;12.840;2022-12-20T14:24:02;57.40;;;25.48;;
25045;SDS011;13044;49.304;12.840;2022-12-20T14:26:35;75.47;;;33.47;;
25045;SDS011;13044;49.304;12.840;2022-12-20T14:29:15;65.70;;;30.90;;
25045;SDS011;13044;49.304;12.840;2022-12-20T14:31:45;65.60;;;30.08;;
25045;SDS011;13044;49.304;12.840;2022-12-20T14:47:47;80.47;;;35.95;;
25045;SDS011;13044;49.304;12.840;2022-12-20T14:50:28;92.13;;;40.70;;
25045;SDS011;13044;49.304;12.840;2022-12-20T14:52:58;74.40;;;33.67;;
25045;SDS011;13044;49.304;12.840;2022-12-20T14:55:30;80.28;;;35.63;;
25045;SDS011;13044;49.304;12.840;2022-12-20T14:58:05;103.65;;;46.70;;
25045;SDS011;13044;49.304;12.840;2022-12-20T15:03:25;95.00;;;44.30;;
25045;SDS011;13044;49.304;12.840;2022-12-20T15:05:57;89.03;;;40.88;;
25045;SDS011;13044;49.304;12.840;2022-12-20T15:08:25;103.53;;;47.30;;
25045;SDS011;13044;49.304;12.840;2022-12-20T15:10:58;71.63;;;31.05;;
25045;SDS011;13044;49.304;12.840;2022-12-20T15:13:39;84.75;;;36.78;;
25045;SDS011;13044;49.304;12.840;2022-12-20T15:16:20;70.70;;;32.60;;
25045;SDS011;13044;49.304;12.840;2022-12-20T15:18:50;75.72;;;36.15;;
25045;SDS011;13044;49.304;12.840;2022-12-20T15:24:01;90.80;;;40.83;;
25045;SDS011;13044;49.304;12.840;2022-12-20T15:26:33;68.53;;;32.35;;
25045;SDS011;13044;49.304;12.840;2022-12-20T15:29:01;63.65;;;27.80;;
25045;SDS011;13044;49.304;12.840;2022-12-20T15:31:29;67.13;;;29.80;;
25045;SDS011;13044;49.304;12.840;2022-12-20T15:34:05;54.10;;;23.80;;
25045;SDS011;13044;49.304;12.840;2022-12-20T15:36:54;105.93;;;47.20;;
25045;SDS011;13044;49.304;12.840;2022-12-20T15:39:25;77.38;;;33.50;;
25045;SDS011;13044;49.304;12.840;2022-12-20T15:41:52;98.65;;;46.45;;
25045;SDS011;13044;49.304;12.840;2022-12-20T15:44:23;98.07;;;45.80;;
25045;SDS011;13044;49.304;12.840;2022-12-20T15:46:53;122.28;;;52.30;;
25045;SDS011;13044;49.304;12.840;2022-12-20T15:49:21;92.22;;;41.38;;
25045;SDS011;13044;49.304;12.840;2022-12-20T15:51:51;74.88;;;34.13;;
25045;SDS011;13044;49.304;12.840;2022-12-20T15:54:23;94.10;;;39.33;;
25045;SDS011;13044;49.304;12.840;2022-12-20T15:56:53;100.65;;;44.42;;
25045;SDS011;13044;49.304;12.840;2022-12-20T15:59:22;65.88;;;29.83;;
25045;SDS011;13044;49.304;12.840;2022-12-20T16:02:14;98.57;;;43.28;;
25045;SDS011;13044;49.304;12.840;2022-12-20T16:04:48;83.78;;;36.00;;
25045;SDS011;13044;49.304;12.840;2022-12-20T16:07:15;98.03;;;40.40;;
25045;SDS011;13044;49.304;12.840;2022-12-20T16:09:42;93.70;;;42.75;;
25045;SDS011;13044;49.304;12.840;2022-12-20T16:12:17;84.53;;;38.08;;
25045;SDS011;13044;49.304;12.840;2022-12-20T16:14:52;78.28;;;35.90;;
25045;SDS011;13044;49.304;12.840;2022-12-20T16:17:20;79.80;;;35.53;;
25045;SDS011;13044;49.304;12.840;2022-12-20T16:19:46;106.15;;;46.65;;
25045;SDS011;13044;49.304;12.840;2022-12-20T16:22:14;103.93;;;45.20;;
25045;SDS011;13044;49.304;12.840;2022-12-20T16:24:44;215.23;;;81.80;;
25045;SDS011;13044;49.304;12.840;2022-12-20T16:27:12;136.52;;;53.97;;
25045;SDS011;13044;49.304;12.840;2022-12-20T16:29:39;122.63;;;49.90;;
25045;SDS011;13044;49.304;12.840;2022-12-20T16:32:10;80.93;;;33.35;;
25045;SDS011;13044;49.304;12.840;2022-12-20T16:34:43;100.68;;;45.28;;